createdAt,value
2023-03-14T00:00:19.068Z,99545.88
2023-03-14T00:02:45.746Z,99542.47
2023-03-14T00:05:12.423Z,99539.22
2023-03-14T00:07:39.910Z,99523.72
2023-03-14T00:10:10.335Z,99519.41
2023-03-14T00:12:37.006Z,99522.03
2023-03-14T00:15:08.039Z,99530.81
2023-03-14T00:17:35.236Z,99517.84
2023-03-14T00:20:12.365Z,99516.84
2023-03-14T00:22:41.807Z,99515.97
2023-03-14T00:25:09.069Z,99504.38
2023-03-14T00:27:35.859Z,99500.03
2023-03-14T00:30:02.494Z,99500.72
2023-03-14T00:32:29.163Z,99494.63
2023-03-14T00:34:55.809Z,99492.81
2023-03-14T00:37:24.893Z,99475.56
2023-03-14T00:39:52.566Z,99479.94
2023-03-14T00:42:19.230Z,99478.38
2023-03-14T00:44:48.450Z,99485.44
2023-03-14T00:47:15.050Z,99487.31
2023-03-14T00:49:44.479Z,99482.03
2023-03-14T00:52:13.599Z,99474.38
2023-03-14T00:54:43.392Z,99469.97
2023-03-14T00:57:10.085Z,99461.56
2023-03-14T00:59:39.359Z,99459.00
2023-03-14T01:02:05.977Z,99458.91
2023-03-14T01:04:32.720Z,99448.56
2023-03-14T01:07:01.810Z,99446.84
2023-03-14T01:09:28.491Z,99447.69
2023-03-14T01:11:55.133Z,99448.50
2023-03-14T01:14:21.883Z,99449.09
2023-03-14T01:16:51.063Z,99461.28
2023-03-14T01:19:17.745Z,99433.91
2023-03-14T01:21:44.351Z,99437.41
2023-03-14T01:24:11.605Z,99425.31
2023-03-14T01:26:40.774Z,99426.91
2023-03-14T01:29:11.373Z,99412.22
2023-03-14T01:31:39.260Z,99400.88
2023-03-14T01:34:06.137Z,99392.06
2023-03-14T01:36:33.110Z,99392.78
2023-03-14T01:39:02.567Z,99389.31
2023-03-14T01:41:29.432Z,99397.19
2023-03-14T01:43:58.618Z,99396.47
2023-03-14T01:46:29.758Z,99385.00
2023-03-14T01:48:58.076Z,99388.22
2023-03-14T01:51:28.023Z,99364.88
2023-03-14T01:53:58.611Z,99375.16
2023-03-14T01:56:27.711Z,99366.44
2023-03-14T01:58:54.893Z,99370.63
2023-03-14T02:01:27.082Z,99360.34
2023-03-14T02:03:55.364Z,99360.38
2023-03-14T02:06:24.356Z,99355.22
2023-03-14T02:08:51.808Z,99344.94
2023-03-14T02:11:22.461Z,99339.75
2023-03-14T02:14:00.108Z,99338.81
2023-03-14T02:16:47.115Z,99330.13
2023-03-14T02:20:08.773Z,99323.09
2023-03-14T02:22:39.242Z,99314.38
2023-03-14T02:25:08.805Z,99317.81
2023-03-14T02:27:35.944Z,99309.94
2023-03-14T02:30:12.694Z,99309.06
2023-03-14T02:32:41.554Z,99313.50
2023-03-14T02:35:11.623Z,99298.66
2023-03-14T02:37:53.517Z,99297.78
2023-03-14T02:40:20.873Z,99292.53
2023-03-14T02:42:51.497Z,99295.91
2023-03-14T02:45:20.436Z,99297.44
2023-03-14T02:47:50.421Z,99305.16
2023-03-14T02:50:21.115Z,99287.88
2023-03-14T02:52:48.572Z,99295.66
2023-03-14T02:55:15.634Z,99280.75
2023-03-14T02:57:45.192Z,99274.66
2023-03-14T03:00:12.322Z,99271.13
2023-03-14T03:02:39.471Z,99259.28
2023-03-14T03:05:06.232Z,99261.31
2023-03-14T03:07:32.918Z,99261.69
2023-03-14T03:09:59.796Z,99256.94
2023-03-14T03:12:26.734Z,99251.91
2023-03-14T03:14:53.401Z,99266.59
2023-03-14T03:17:20.230Z,99275.34
2023-03-14T03:19:46.885Z,99265.56
2023-03-14T03:22:13.491Z,99257.75
2023-03-14T03:24:41.390Z,99256.00
2023-03-14T03:27:08.107Z,99253.22
2023-03-14T03:29:35.361Z,99254.06
2023-03-14T03:32:02.476Z,99253.28
2023-03-14T03:34:29.649Z,99242.94
2023-03-14T03:36:57.450Z,99251.47
2023-03-14T03:39:24.704Z,99257.56
2023-03-14T03:41:51.333Z,99252.41
2023-03-14T03:44:18.925Z,99240.03
2023-03-14T03:46:47.996Z,99247.84
2023-03-14T03:49:14.626Z,99237.50
2023-03-14T03:51:41.644Z,99237.38
2023-03-14T03:54:11.189Z,99229.63
2023-03-14T03:56:38.915Z,99237.44
2023-03-14T03:59:09.212Z,99247.53
2023-03-14T04:01:38.364Z,99230.25
2023-03-14T04:04:05.338Z,99237.19
2023-03-14T04:06:34.433Z,99239.75
2023-03-14T04:09:01.390Z,99227.63
2023-03-14T04:11:44.272Z,99214.75
2023-03-14T04:14:19.665Z,99215.56
2023-03-14T04:16:46.773Z,99217.13
2023-03-14T04:19:16.229Z,99225.25
2023-03-14T04:21:46.053Z,99232.03
2023-03-14T04:24:13.789Z,99231.19
2023-03-14T04:26:44.342Z,99227.66
2023-03-14T04:29:13.339Z,99221.53
2023-03-14T04:31:40.953Z,99223.28
2023-03-14T04:34:07.828Z,99205.16
2023-03-14T04:36:40.400Z,99208.38
2023-03-14T04:39:13.038Z,99210.91
2023-03-14T04:41:45.550Z,99217.84
2023-03-14T04:44:14.713Z,99227.53
2023-03-14T04:46:41.761Z,99225.63
2023-03-14T04:49:10.761Z,99233.53
2023-03-14T04:51:41.097Z,99236.06
2023-03-14T04:54:08.508Z,99234.66
2023-03-14T04:56:35.152Z,99241.56
2023-03-14T04:59:03.027Z,99237.34
2023-03-14T05:01:31.163Z,99232.44
2023-03-14T05:04:10.642Z,99228.91
2023-03-14T05:06:57.535Z,99225.56
2023-03-14T05:09:36.133Z,99222.66
2023-03-14T05:12:19.055Z,99207.91
2023-03-14T05:15:00.232Z,99203.84
2023-03-14T05:18:02.391Z,99201.50
2023-03-14T05:20:51.310Z,99195.13
2023-03-14T05:23:46.650Z,99198.03
2023-03-14T05:26:30.571Z,99195.94
2023-03-14T05:29:19.926Z,99193.03
2023-03-14T05:32:13.111Z,99196.78
2023-03-14T05:34:52.736Z,99198.81
2023-03-14T05:37:51.816Z,99201.78
2023-03-14T05:40:36.758Z,99196.94
2023-03-14T05:43:34.891Z,99188.56
2023-03-14T05:46:33.067Z,99187.03
2023-03-14T05:49:20.006Z,99181.91
2023-03-14T05:52:07.143Z,99185.53
2023-03-14T05:54:58.295Z,99180.50
2023-03-14T05:58:03.668Z,99182.03
2023-03-14T06:01:04.749Z,99181.56
2023-03-14T06:04:03.448Z,99192.88
2023-03-14T06:06:42.637Z,99192.81
2023-03-14T06:09:12.536Z,99192.41
2023-03-14T06:12:06.998Z,99191.84
2023-03-14T06:14:53.740Z,99190.47
2023-03-14T06:17:22.922Z,99181.13
2023-03-14T06:19:55.889Z,99176.81
2023-03-14T06:22:25.626Z,99184.50
2023-03-14T06:24:56.236Z,99182.91
2023-03-14T06:27:24.325Z,99186.31
2023-03-14T06:29:57.012Z,99181.91
2023-03-14T06:32:25.697Z,99186.09
2023-03-14T06:34:54.821Z,99186.81
2023-03-14T06:37:24.581Z,99182.34
2023-03-14T06:39:52.621Z,99181.44
2023-03-14T06:42:34.393Z,99188.53
2023-03-14T06:45:01.286Z,99187.56
2023-03-14T06:47:28.082Z,99185.91
2023-03-14T06:50:02.070Z,99179.91
2023-03-14T06:52:30.241Z,99192.03
2023-03-14T06:54:57.196Z,99182.50
2023-03-14T06:57:24.849Z,99164.47
2023-03-14T06:59:56.546Z,99176.56
2023-03-14T07:02:39.872Z,99168.88
2023-03-14T07:05:16.082Z,99175.91
2023-03-14T07:07:45.618Z,99176.00
2023-03-14T07:10:14.548Z,99165.59
2023-03-14T07:12:41.182Z,99175.09
2023-03-14T07:15:18.579Z,99170.06
2023-03-14T07:17:51.090Z,99169.16
2023-03-14T07:20:22.461Z,99173.53
2023-03-14T07:22:50.451Z,99171.78
2023-03-14T07:25:21.301Z,99169.94
2023-03-14T07:27:50.241Z,99179.31
2023-03-14T07:30:19.288Z,99171.63
2023-03-14T07:32:47.090Z,99165.59
2023-03-14T07:35:16.716Z,99159.50
2023-03-14T07:37:45.544Z,99158.00
2023-03-14T07:40:16.253Z,99159.97
2023-03-14T07:42:43.754Z,99155.06
2023-03-14T07:45:33.076Z,99139.56
2023-03-14T07:48:03.226Z,99136.13
2023-03-14T07:50:32.301Z,99138.00
2023-03-14T07:52:58.910Z,99140.66
2023-03-14T07:55:27.963Z,99132.06
2023-03-14T07:57:54.994Z,99131.97
2023-03-14T08:00:21.789Z,99122.50
2023-03-14T08:02:48.438Z,99133.84
2023-03-14T08:05:20.207Z,99131.38
2023-03-14T08:07:49.684Z,99122.78
2023-03-14T08:10:23.228Z,99114.19
2023-03-14T08:12:55.022Z,99113.41
2023-03-14T08:15:21.924Z,99109.19
2023-03-14T08:17:52.143Z,99109.28
2023-03-14T08:20:19.223Z,99109.31
2023-03-14T08:22:45.828Z,99109.25
2023-03-14T08:25:12.528Z,99111.94
2023-03-14T08:27:40.027Z,99112.03
2023-03-14T08:30:07.551Z,99097.31
2023-03-14T08:32:36.704Z,99095.56
2023-03-14T08:35:06.506Z,99085.16
2023-03-14T08:37:33.821Z,99086.91
2023-03-14T08:40:00.489Z,99089.53
2023-03-14T08:42:27.056Z,99087.84
2023-03-14T08:44:53.762Z,99080.03
2023-03-14T08:47:20.645Z,99078.31
2023-03-14T08:49:47.626Z,99075.63
2023-03-14T08:52:14.239Z,99072.13
2023-03-14T08:54:44.612Z,99052.03
2023-03-14T08:57:15.979Z,99051.91
2023-03-14T08:59:45.138Z,99043.16
2023-03-14T09:02:14.237Z,99058.00
2023-03-14T09:04:40.841Z,99043.25
2023-03-14T09:07:07.529Z,99035.44
2023-03-14T09:09:34.226Z,99043.16
2023-03-14T09:12:01.001Z,99031.81
2023-03-14T09:14:27.597Z,99030.00
2023-03-14T09:16:57.308Z,99030.78
2023-03-14T09:19:26.482Z,99033.31
2023-03-14T09:21:53.075Z,99030.69
2023-03-14T09:24:21.882Z,99019.44
2023-03-14T09:26:48.512Z,99008.00
2023-03-14T09:29:15.111Z,99012.28
2023-03-14T09:31:41.773Z,99002.53
2023-03-14T09:34:08.421Z,98994.66
2023-03-14T09:36:35.159Z,98997.09
2023-03-14T09:39:01.818Z,98997.84
2023-03-14T09:41:35.425Z,98996.81
2023-03-14T09:44:07.099Z,99012.44
2023-03-14T09:46:36.039Z,99003.78
2023-03-14T09:49:02.743Z,98980.84
2023-03-14T09:51:34.157Z,98975.47
2023-03-14T09:54:01.636Z,98962.81
2023-03-14T09:56:29.070Z,98959.06
2023-03-14T09:59:03.419Z,98950.09
2023-03-14T10:01:32.780Z,98950.78
2023-03-14T10:04:03.902Z,98945.59
2023-03-14T10:06:33.145Z,98925.28
2023-03-14T10:09:02.261Z,98932.31
2023-03-14T10:11:28.878Z,98915.66
2023-03-14T10:14:13.602Z,98918.75
2023-03-14T10:16:44.810Z,98917.38
2023-03-14T10:19:12.402Z,98904.59
2023-03-14T10:21:43.328Z,98889.03
2023-03-14T10:24:20.421Z,98878.38
2023-03-14T10:26:51.416Z,98890.53
2023-03-14T10:29:18.448Z,98894.88
2023-03-14T10:34:23.189Z,98888.31
2023-03-14T10:36:56.010Z,98891.19
2023-03-14T10:39:22.637Z,98882.06
2023-03-14T10:41:55.237Z,98893.41
2023-03-14T10:44:26.221Z,98876.09
2023-03-14T10:47:05.819Z,98865.94
2023-03-14T10:49:34.246Z,98869.69
2023-03-14T10:52:17.838Z,98883.75
2023-03-14T10:54:47.926Z,98860.69
2023-03-14T10:57:14.511Z,98850.03
2023-03-14T10:59:42.286Z,98848.25
2023-03-14T11:02:31.052Z,98886.84
2023-03-14T11:05:07.329Z,98858.69
2023-03-14T11:07:38.539Z,98820.81
2023-03-14T11:10:10.344Z,98818.63
2023-03-14T11:12:37.397Z,98819.56
2023-03-14T11:15:29.272Z,98827.00
2023-03-14T11:18:00.745Z,98823.00
2023-03-14T11:20:30.620Z,98823.03
2023-03-14T11:22:59.740Z,98806.13
2023-03-14T11:25:38.631Z,98799.50
2023-03-14T11:28:11.786Z,98779.75
2023-03-14T11:30:54.905Z,98773.94
2023-03-14T11:33:27.590Z,98766.91
2023-03-14T11:36:03.221Z,98776.41
2023-03-14T11:38:36.125Z,98773.19
2023-03-14T11:41:05.631Z,98786.91
2023-03-14T11:43:36.477Z,98765.91
2023-03-14T11:46:09.432Z,98745.56
2023-03-14T11:48:39.212Z,98764.28
2023-03-14T11:51:08.438Z,98745.09
2023-03-14T11:53:35.141Z,98754.81
2023-03-14T11:56:05.242Z,98748.88
2023-03-14T11:58:33.192Z,98743.91
2023-03-14T12:00:59.963Z,98732.41
2023-03-14T12:03:26.638Z,98750.28
2023-03-14T12:06:12.150Z,98721.50
2023-03-14T12:08:45.246Z,98737.28
2023-03-14T12:11:14.545Z,98731.94
2023-03-14T12:13:46.465Z,98738.53
2023-03-14T12:16:25.376Z,98721.28
2023-03-14T12:18:52.807Z,98778.47
2023-03-14T12:21:19.581Z,98714.88
2023-03-14T12:23:53.998Z,98696.56
2023-03-14T12:26:24.711Z,98705.25
2023-03-14T12:29:10.795Z,98746.34
2023-03-14T12:31:46.648Z,98716.31
2023-03-14T12:34:14.358Z,98693.81
2023-03-14T12:36:52.751Z,98685.41
2023-03-14T12:39:38.701Z,98701.97
2023-03-14T12:42:18.752Z,98691.38
2023-03-14T12:44:46.592Z,98686.53
2023-03-14T12:47:22.164Z,98674.56
2023-03-14T12:49:53.450Z,98677.63
2023-03-14T12:52:24.122Z,98682.78
2023-03-14T12:54:53.727Z,98667.41
2023-03-14T12:57:23.079Z,98678.94
2023-03-14T12:59:55.103Z,98674.81
2023-03-14T13:02:42.503Z,98672.25
2023-03-14T13:05:27.666Z,98670.81
2023-03-14T13:07:56.430Z,98671.88
2023-03-14T13:10:38.010Z,98672.59
2023-03-14T13:13:17.031Z,98658.59
2023-03-14T13:15:46.858Z,98658.06
2023-03-14T13:18:14.566Z,98658.22
2023-03-14T13:20:49.963Z,98667.94
2023-03-14T13:23:23.653Z,98670.63
2023-03-14T13:25:50.671Z,98675.06
2023-03-14T13:28:17.460Z,98686.56
2023-03-14T13:30:45.217Z,98686.59
2023-03-14T13:33:24.257Z,98695.50
2023-03-14T13:36:03.599Z,98718.44
2023-03-14T13:38:31.354Z,98701.69
2023-03-14T13:41:01.049Z,98699.84
2023-03-14T13:43:27.680Z,98695.09
2023-03-14T13:46:01.645Z,98686.88
2023-03-14T13:48:29.726Z,98697.47
2023-03-14T13:50:59.810Z,98681.56
2023-03-14T13:53:26.893Z,98694.94
2023-03-14T13:55:53.816Z,98689.84
2023-03-14T13:58:22.997Z,98686.16
2023-03-14T14:01:16.519Z,98691.91
2023-03-14T14:03:44.185Z,98692.53
2023-03-14T14:06:12.469Z,98691.31
2023-03-14T14:08:41.765Z,98682.19
2023-03-14T14:11:13.285Z,98678.75
2023-03-14T14:13:44.888Z,98685.06
2023-03-14T14:16:11.607Z,98678.72
2023-03-14T14:18:40.688Z,98664.34
2023-03-14T14:21:11.511Z,98667.97
2023-03-14T14:23:39.818Z,98670.66
2023-03-14T14:26:09.539Z,98675.16
2023-03-14T14:28:39.802Z,98677.69
2023-03-14T14:31:22.262Z,98671.66
2023-03-14T14:33:56.918Z,98667.94
2023-03-14T14:36:23.491Z,98670.19
2023-03-14T14:38:53.890Z,98665.06
2023-03-14T14:41:25.082Z,98678.03
2023-03-14T14:43:52.124Z,98667.59
2023-03-14T14:46:20.185Z,98673.69
2023-03-14T14:48:50.613Z,98662.78
2023-03-14T14:51:23.614Z,98666.31
2023-03-14T14:53:52.938Z,98658.25
2023-03-14T14:56:27.036Z,98665.06
2023-03-14T14:59:00.891Z,98672.16
2023-03-14T15:01:31.364Z,98660.75
2023-03-14T15:03:58.060Z,98657.41
2023-03-14T15:06:28.641Z,98656.72
2023-03-14T15:08:55.273Z,98663.06
2023-03-14T15:11:25.801Z,98662.25
2023-03-14T15:13:52.822Z,98681.78
2023-03-14T15:16:20.264Z,98677.44
2023-03-14T15:18:56.740Z,98684.75
2023-03-14T15:21:31.562Z,98685.09
2023-03-14T15:24:01.279Z,98706.38
2023-03-14T15:26:30.788Z,98706.59
2023-03-14T15:28:57.449Z,98714.81
2023-03-14T15:31:26.609Z,98719.50
2023-03-14T15:33:53.342Z,98717.00
2023-03-14T15:36:30.559Z,98712.50
2023-03-14T15:39:02.713Z,98722.03
2023-03-14T15:41:29.342Z,98708.16
2023-03-14T15:43:58.583Z,98718.59
2023-03-14T15:46:25.298Z,98732.56
2023-03-14T15:48:52.160Z,98760.03
2023-03-14T15:51:21.146Z,98764.66
2023-03-14T15:53:47.760Z,98784.41
2023-03-14T15:56:19.893Z,98795.88
2023-03-14T15:58:49.643Z,98811.22
2023-03-14T16:01:18.837Z,98820.47
2023-03-14T16:03:52.896Z,98815.59
2023-03-14T16:06:20.188Z,98826.25
2023-03-14T16:08:46.939Z,98818.59
2023-03-14T16:11:16.165Z,98806.63
2023-03-14T16:13:45.016Z,98818.13
2023-03-14T16:16:14.524Z,98811.34
2023-03-14T16:18:44.074Z,98806.16
2023-03-14T16:21:17.235Z,98811.41
2023-03-14T16:23:44.155Z,98805.34
2023-03-14T16:26:12.415Z,98801.84
2023-03-14T16:28:39.643Z,98795.78
2023-03-14T16:31:09.646Z,98800.97
2023-03-14T16:33:39.159Z,98801.88
2023-03-14T16:36:08.635Z,98794.94
2023-03-14T16:38:40.911Z,98799.25
2023-03-14T16:41:10.258Z,98803.59
2023-03-14T16:43:39.346Z,98813.16
2023-03-14T16:46:07.172Z,98810.66
2023-03-14T16:48:33.973Z,98825.47
2023-03-14T16:51:03.177Z,98835.94
2023-03-14T16:53:30.453Z,98850.75
2023-03-14T16:56:00.694Z,98838.59
2023-03-14T16:58:27.729Z,98855.09
2023-03-14T17:01:00.504Z,98860.31
2023-03-14T17:03:28.048Z,98862.06
2023-03-14T17:05:54.890Z,98862.06
2023-03-14T17:08:21.533Z,98855.13
2023-03-14T17:10:48.330Z,98858.59
2023-03-14T17:13:15.168Z,98864.66
2023-03-14T17:15:45.813Z,98875.06
2023-03-14T17:18:14.978Z,98875.91
2023-03-14T17:20:41.914Z,98884.56
2023-03-14T17:23:08.967Z,98888.00
2023-03-14T17:25:36.158Z,98883.63
2023-03-14T17:28:05.305Z,98887.94
2023-03-14T17:30:32.248Z,98886.22
2023-03-14T17:32:59.048Z,98916.53
2023-03-14T17:35:25.844Z,98897.44
2023-03-14T17:37:54.770Z,98897.41
2023-03-14T17:40:23.671Z,98899.16
2023-03-14T17:42:52.626Z,98930.38
2023-03-14T17:45:19.268Z,98892.25
2023-03-14T17:47:45.858Z,98904.38
2023-03-14T17:50:12.867Z,98928.63
2023-03-14T17:52:39.690Z,98906.94
2023-03-14T17:55:06.808Z,98921.69
2023-03-14T17:57:49.017Z,98910.38
2023-03-14T18:00:18.085Z,98911.25
2023-03-14T18:02:47.730Z,98901.72
2023-03-14T18:05:19.794Z,98904.34
2023-03-14T18:08:20.977Z,98902.59
2023-03-14T18:10:47.859Z,98901.75
2023-03-14T18:13:16.998Z,98903.50
2023-03-14T18:15:44.046Z,98898.31
2023-03-14T18:18:13.018Z,98894.00
2023-03-14T18:20:45.937Z,98894.88
2023-03-14T18:29:03.343Z,98902.69
2023-03-14T18:31:32.390Z,98907.03
2023-03-14T18:34:05.200Z,98914.00
2023-03-14T18:36:32.546Z,98911.34
2023-03-14T18:39:03.309Z,98904.38
2023-03-14T18:41:38.501Z,98903.50
2023-03-14T18:44:20.511Z,98906.97
2023-03-14T18:46:52.530Z,98900.03
2023-03-14T18:49:20.801Z,98904.38
2023-03-14T18:51:51.072Z,98886.13
2023-03-14T18:54:20.130Z,98881.84
2023-03-14T18:56:49.115Z,98881.81
2023-03-14T18:59:16.005Z,98872.31
2023-03-14T19:01:43.287Z,98873.19
2023-03-14T19:04:13.959Z,98873.19
2023-03-14T19:06:41.797Z,98874.06
2023-03-14T19:09:20.861Z,98876.69
2023-03-14T19:11:49.928Z,98881.91
2023-03-14T19:14:23.534Z,98884.53
2023-03-14T19:17:33.763Z,98885.41
2023-03-14T19:20:20.929Z,98888.88
2023-03-14T19:23:09.863Z,98888.94
2023-03-14T19:25:37.473Z,98886.34
2023-03-14T19:28:06.334Z,98883.75
2023-03-14T19:30:37.612Z,98883.75
2023-03-14T19:33:09.817Z,98876.78
2023-03-14T19:35:39.514Z,98875.94
2023-03-14T19:38:14.891Z,98875.06
2023-03-14T19:40:44.927Z,98879.41
2023-03-14T19:43:13.308Z,98867.22
2023-03-14T19:47:01.075Z,98874.16
2023-03-14T19:48:58.980Z,98879.38
2023-03-14T19:51:26.537Z,98873.28
2023-03-14T19:53:55.697Z,98868.03
2023-03-14T19:56:24.122Z,98857.63
2023-03-14T19:58:53.467Z,98863.69
2023-03-14T20:01:24.762Z,98873.25
2023-03-14T20:03:51.665Z,98867.19
2023-03-14T20:06:18.251Z,98863.72
2023-03-14T20:08:45.187Z,98869.81
2023-03-14T20:11:14.904Z,98881.13
2023-03-14T20:13:41.716Z,98885.50
2023-03-14T20:16:11.452Z,98875.06
2023-03-14T20:18:49.891Z,98878.53
2023-03-14T20:21:16.578Z,98889.84
2023-03-14T20:23:51.824Z,98891.44
2023-03-14T20:26:18.494Z,98886.16
2023-03-14T20:28:46.817Z,98893.88
2023-03-14T20:31:22.820Z,98911.16
2023-03-14T20:33:52.110Z,98906.84
2023-03-14T20:36:21.136Z,98912.97
2023-03-14T20:38:47.898Z,98914.75
2023-03-14T20:41:15.381Z,98916.50
2023-03-14T20:43:44.502Z,98925.16
2023-03-14T20:46:14.010Z,98923.47
2023-03-14T20:48:40.738Z,98933.84
2023-03-14T20:51:07.940Z,98934.66
2023-03-14T20:53:34.639Z,98937.22
2023-03-14T20:56:01.323Z,98938.06
2023-03-14T20:58:35.946Z,98939.78
2023-03-14T21:04:40.108Z,98955.34
2023-03-14T21:07:07.220Z,98957.94
2023-03-14T21:12:41.673Z,98962.38
2023-03-14T21:15:08.922Z,98960.69
2023-03-14T21:17:39.047Z,98972.81
2023-03-14T21:20:29.816Z,98975.44
2023-03-14T21:22:59.965Z,98968.53
2023-03-14T21:25:28.844Z,98965.94
2023-03-14T21:28:27.930Z,98966.88
2023-03-14T21:31:04.053Z,98967.78
2023-03-14T21:34:27.603Z,98966.06
2023-03-14T21:41:26.380Z,98972.09
2023-03-14T21:46:16.575Z,98979.03
2023-03-14T21:49:02.348Z,98973.78
2023-03-14T21:51:51.111Z,98983.28
2023-03-14T21:58:15.437Z,98983.16
2023-03-14T22:00:43.614Z,98980.59
2023-03-14T22:03:30.938Z,98996.28
2023-03-14T22:05:57.932Z,98997.22
2023-03-14T22:08:24.527Z,98993.78
2023-03-14T22:10:56.555Z,99001.63
2023-03-14T22:13:23.815Z,99008.50
2023-03-14T22:15:50.862Z,99016.25
2023-03-14T22:18:18.144Z,99017.13
2023-03-14T22:20:44.912Z,99024.88
2023-03-14T22:23:12.209Z,99018.81
2023-03-14T22:25:41.605Z,99017.94
2023-03-14T22:28:10.293Z,99018.72
2023-03-14T22:30:37.251Z,99029.13
2023-03-14T22:33:04.209Z,99032.59
2023-03-14T22:35:31.116Z,99036.03
2023-03-14T22:37:57.724Z,99038.63
2023-03-14T22:40:26.714Z,99045.50
2023-03-14T22:42:53.476Z,99034.25
2023-03-14T22:45:20.059Z,99046.38
2023-03-14T22:47:49.209Z,99034.25
2023-03-14T22:50:15.914Z,99030.72
2023-03-14T22:52:47.609Z,99039.25
2023-03-14T22:55:14.243Z,99034.03
2023-03-14T22:57:41.448Z,99034.88
2023-03-14T23:00:13.976Z,99043.53
2023-03-14T23:02:40.966Z,99044.38
2023-03-14T23:05:10.028Z,99040.91
2023-03-14T23:07:39.503Z,99037.41
2023-03-14T23:10:06.873Z,99039.09
2023-03-14T23:12:33.989Z,99038.88
2023-03-14T23:15:00.562Z,99036.81
2023-03-14T23:17:27.218Z,99041.06
2023-03-14T23:19:53.856Z,99031.59
2023-03-14T23:22:20.902Z,99026.47
2023-03-14T23:24:48.994Z,99028.25
2023-03-14T23:27:16.343Z,99029.97
2023-03-14T23:29:45.202Z,99033.53
2023-03-14T23:32:11.863Z,99033.47
2023-03-14T23:34:38.784Z,99035.06
2023-03-14T23:37:08.474Z,99045.38
2023-03-14T23:39:38.089Z,99038.34
2023-03-14T23:42:05.111Z,99031.56
2023-03-14T23:44:31.985Z,99040.16
2023-03-14T23:47:01.088Z,99029.94
2023-03-14T23:49:30.532Z,99034.16
2023-03-14T23:52:00.087Z,99050.63
2023-03-14T23:54:27.965Z,99040.97
2023-03-14T23:56:54.590Z,99035.91
2023-03-14T23:59:21.138Z,99037.59
